X  Tanca Dades meteorològiques de l'aviació METAR        LGTS Thessaloniki Macedonia International
Temperatura
57°F Temperatura
52°F Rosada
82% Humitat



Vent
8 MPH
13 KM/H
4 M/S
7 NUS



180°
S
Condicions actuals

Mostly Clear Majoritàriament clar
Pressió 1013 (hPa) - 29.91 (inHg)
Visibilitat 6 (milla) - 10 (km)
Aeroport
Codi aeroport LGTS

Ubicació: Thessaloniki Macedonia International
Distància: 85 (mi)

Metar:
METAR LGTS 031750Z 18007KT 9999 FEW020 14/11 Q1013 NOSIG

Temps: 03-03-2024 19:50 EET